Fuyo Maru No.8 — JD2114 — position and weather

sailwx.info

Track history (hours):
 
Tides and Currents Weather Stations Pressure Air Temp Water Temp Dewpoint Dewpoint Depression Visibility Wind Speed Wind Dir Waves Ship Positions

Fuyo Maru No.8

Last reported at 2018-Jan-24 01:30 UTC. Time now 2018-Jan-24 01:47 UTC.
Position N 35°34' E 139°50'.

; draft 4 m.

Type: Ship. MMSI: 431602302.

Date/timePositionNaut miles runAvg speedWind from/ knotsBaromVisibWave heightAir tempDewpointWater temp
2018-Jan-24 01:30N 35°34' E 139°50'0 0.0
2018-Jan-24 00:57N 35°34' E 139°50'0 0.0
2018-Jan-24 00:27N 35°34' E 139°50'0 0.0
2018-Jan-24 00:00N 35°34' E 139°50'0 0.0
2018-Jan-23 23:21N 35°34' E 139°50'0 0.0
2018-Jan-23 23:00N 35°34' E 139°50'0 0.0
2018-Jan-23 22:30N 35°34' E 139°50'0 0.0
2018-Jan-23 21:57N 35°34' E 139°50'0 0.0
2018-Jan-23 21:24N 35°34' E 139°50'0 0.0
2018-Jan-23 20:51N 35°34' E 139°50'0 0.0
2018-Jan-23 20:06N 35°34' E 139°50'0 0.0
2018-Jan-23 18:48N 35°34' E 139°50'0 0.0
2018-Jan-23 18:24N 35°34' E 139°50'0 0.5
2018-Jan-23 18:00N 35°34' E 139°50'4 6.4
2018-Jan-23 17:26N 35°36' E 139°46'0 0.0
2018-Jan-23 13:48N 35°36' E 139°46'0 0.0
2018-Jan-23 12:24N 35°36' E 139°46'0 0.1
2018-Jan-23 11:42N 35°36' E 139°46'0 0.1
2018-Jan-23 11:24N 35°36' E 139°46'0 0.0
2018-Jan-23 10:54N 35°36' E 139°46'0 0.0
2018-Jan-23 10:22N 35°36' E 139°46'0 0.0
2018-Jan-23 09:59N 35°36' E 139°46'0 0.0
2018-Jan-23 09:30N 35°36' E 139°46'0 0.0
2018-Jan-23 09:00N 35°36' E 139°46'0 0.0
2018-Jan-23 08:30N 35°36' E 139°46'0 0.0
2018-Jan-23 07:57N 35°36' E 139°46'0 0.0
2018-Jan-23 07:06N 35°36' E 139°46'0 0.0
2018-Jan-23 06:57N 35°36' E 139°46'0 0.0
2018-Jan-23 06:27N 35°36' E 139°46'3 7.2
2018-Jan-23 05:59N 35°34' E 139°50'0 0.7
2018-Jan-23 05:25N 35°34' E 139°50'0 0.0
2018-Jan-23 04:55N 35°34' E 139°50'0 0.0
2018-Jan-23 04:28N 35°34' E 139°50'0 0.0
2018-Jan-23 03:58N 35°34' E 139°50'0 0.0
2018-Jan-23 03:28N 35°34' E 139°50'0 0.0
2018-Jan-23 02:58N 35°34' E 139°50'0 0.1
2018-Jan-23 02:28N 35°34' E 139°50'0 0.0
2018-Jan-23 01:52N 35°34' E 139°50'0 0.1
2018-Jan-23 01:19N 35°34' E 139°50'0 0.0
2018-Jan-23 00:28N 35°34' E 139°50'0 0.0
2018-Jan-22 23:58N 35°34' E 139°50'0 0.1
2018-Jan-22 23:28N 35°34' E 139°50'0 0.0
2018-Jan-22 22:16N 35°34' E 139°50'0 0.0
2018-Jan-22 21:49N 35°34' E 139°50'0 0.0
2018-Jan-22 21:22N 35°34' E 139°50'0 0.0
2018-Jan-22 20:58N 35°34' E 139°50'0 0.0
2018-Jan-22 20:25N 35°34' E 139°50'0 0.0
2018-Jan-22 19:58N 35°34' E 139°50'0 0.1
2018-Jan-22 19:22N 35°34' E 139°50'0 0.0
2018-Jan-22 17:25N 35°34' E 139°50'0 0.0
2018-Jan-22 16:46N 35°34' E 139°50'0 0.0
2018-Jan-22 16:28N 35°34' E 139°50'0 0.0
2018-Jan-22 15:49N 35°34' E 139°50'0 0.0
2018-Jan-22 15:16N 35°34' E 139°50'0 0.0
2018-Jan-22 14:49N 35°34' E 139°50'0 0.0
2018-Jan-22 14:07N 35°34' E 139°50'0 0.0
2018-Jan-22 13:52N 35°34' E 139°50'0 0.0
2018-Jan-22 13:25N 35°34' E 139°50'0 0.0
2018-Jan-22 12:58N 35°34' E 139°50'0 0.0
2018-Jan-22 12:25N 35°34' E 139°50'0 0.0
2018-Jan-22 11:58N 35°34' E 139°50'0 0.0
2018-Jan-22 11:25N 35°34' E 139°50'0 0.0
2018-Jan-22 10:55N 35°34' E 139°50'0 0.0
2018-Jan-22 10:13N 35°34' E 139°50'0 0.0
2018-Jan-22 09:52N 35°34' E 139°50'0 0.0
2018-Jan-22 09:22N 35°34' E 139°50'0 0.0
2018-Jan-22 08:55N 35°34' E 139°50'0 0.0
2018-Jan-22 08:19N 35°34' E 139°50'0 0.0
2018-Jan-22 07:43N 35°34' E 139°50'0 0.0
2018-Jan-22 07:29N 35°34' E 139°50'0 0.0
2018-Jan-22 07:00N 35°34' E 139°50'0 0.1
2018-Jan-22 06:30N 35°34' E 139°50'0 0.0
2018-Jan-22 06:00N 35°34' E 139°50'0 0.0
2018-Jan-22 05:30N 35°34' E 139°50'0 0.1
2018-Jan-22 04:59N 35°34' E 139°50'4 7.5
2018-Jan-22 04:29N 35°36' E 139°46'0 0.3
2018-Jan-22 03:59N 35°36' E 139°46'3 7.1
2018-Jan-22 03:30N 35°34' E 139°49'1 1.1
2018-Jan-22 02:51N 35°34' E 139°50'0 0.0
2018-Jan-22 02:30N 35°34' E 139°50'0 0.0
2018-Jan-22 01:54N 35°34' E 139°50'0 0.0
2018-Jan-22 01:30N 35°34' E 139°50'0 0.0
2018-Jan-22 00:57N 35°34' E 139°50'0 0.0
2018-Jan-22 00:30N 35°34' E 139°50'0 0.0
2018-Jan-22 00:00N 35°34' E 139°50'0 0.0
2018-Jan-21 23:30N 35°34' E 139°50'0 0.0
2018-Jan-21 23:00N 35°34' E 139°50'0 0.0
2018-Jan-21 22:30N 35°34' E 139°50'0 0.0
2018-Jan-21 22:00N 35°34' E 139°50'0 0.0
2018-Jan-21 21:30N 35°34' E 139°50'0 0.0
2018-Jan-21 20:57N 35°34' E 139°50'0 0.0
2018-Jan-21 20:30N 35°34' E 139°50'0 0.0
2018-Jan-21 20:00N 35°34' E 139°50'0 0.1
2018-Jan-21 19:30N 35°34' E 139°50'0 0.0
2018-Jan-21 19:00N 35°34' E 139°50'0 0.1
2018-Jan-21 18:30N 35°34' E 139°50'0 0.1
2018-Jan-21 17:21N 35°34' E 139°50'0 0.0
2018-Jan-21 16:51N 35°34' E 139°50'0 0.0
2018-Jan-21 16:30N 35°34' E 139°50'0 0.0
2018-Jan-21 16:00N 35°34' E 139°50'0 0.0
2018-Jan-21 15:30N 35°34' E 139°50'0 0.0
2018-Jan-21 15:00N 35°34' E 139°50'0 0.0
2018-Jan-21 14:18N 35°34' E 139°50'0 0.0
2018-Jan-21 14:00N 35°34' E 139°50'0 0.1
2018-Jan-21 13:18N 35°34' E 139°50'2 7.9
2018-Jan-21 13:00N 35°32' E 139°51'510.7
2018-Jan-21 12:30N 35°27' E 139°48'511.0
2018-Jan-21 12:01N 35°22' E 139°45'510.0
2018-Jan-21 11:30N 35°17' E 139°45'510.7
2018-Jan-21 11:00N 35°12' E 139°47'611.6
2018-Jan-21 10:31N 35°07' E 139°45'612.4
2018-Jan-21 10:00N 35°01' E 139°44'611.3
2018-Jan-21 09:29N 34°55' E 139°46'11 9.3
2018-Jan-21 08:19N 34°54' E 139°59'410.8
2018-Jan-21 07:59N 34°56' E 140°03'  
2018-Jan-18 17:02N 35°00' E 140°12'011.0
2018-Jan-18 17:00N 34°60' E 140°11'2010.8
2018-Jan-18 15:07N 34°53' E 139°48'1 9.7
2018-Jan-18 15:00N 34°53' E 139°47'510.6
2018-Jan-18 14:30N 34°58' E 139°44'611.6
2018-Jan-18 14:00N 35°03' E 139°45'511.1
2018-Jan-18 13:30N 35°09' E 139°45'611.9
2018-Jan-18 13:00N 35°15' E 139°46'612.2
2018-Jan-18 12:30N 35°20' E 139°43'611.5
2018-Jan-18 12:00N 35°26' E 139°44'612.2
2018-Jan-18 11:30N 35°31' E 139°49'5 9.8
2018-Jan-18 10:58N 35°36' E 139°47'1 2.5
2018-Jan-18 10:26N 35°37' E 139°46'0 0.0
2018-Jan-18 09:59N 35°37' E 139°46'1 1.1
2018-Jan-18 09:30N 35°36' E 139°46'4 7.3
2018-Jan-18 09:00N 35°34' E 139°50'0 0.4
2018-Jan-18 08:30N 35°34' E 139°50'0 0.0
2018-Jan-18 07:53N 35°34' E 139°50'0 0.0
2018-Jan-18 07:08N 35°34' E 139°50'0 0.1
2018-Jan-18 06:45N 35°34' E 139°50'2 7.3
2018-Jan-18 06:30N 35°33' E 139°52'510.1
2018-Jan-18 06:01N 35°30' E 139°47'1 2.4
2018-Jan-18 05:28N 35°29' E 139°45'0 0.0
2018-Jan-18 04:58N 35°29' E 139°45'0 0.0
2018-Jan-18 04:31N 35°29' E 139°45'0 0.0
2018-Jan-18 04:00N 35°29' E 139°45'5 9.2
2018-Jan-18 03:31N 35°25' E 139°46'611.6
2018-Jan-18 03:00N 35°19' E 139°44'510.7
2018-Jan-18 02:30N 35°14' E 139°47'611.2
2018-Jan-18 02:00N 35°09' E 139°46'510.7
2018-Jan-18 01:30N 35°04' E 139°43'611.2
2018-Jan-18 01:00N 35°01' E 139°38'1111.3
2018-Jan-18 00:00N 34°54' E 139°26'111.3
2018-Jan-17 23:54N 34°54' E 139°25'  
Track history (hours):
 
Tides and Currents Weather Stations Pressure Air Temp Water Temp Dewpoint Dewpoint Depression Visibility Wind Speed Wind Dir Waves Ship Positions

Fuyo Maru No.8

Last reported at 2018-Jan-24 01:30 UTC. Time now 2018-Jan-24 01:47 UTC.
Position N 35°34' E 139°50'.

; draft 4 m.

Type: Ship. MMSI: 431602302.

Date/timePositionNaut miles runAvg speedWind from/ knotsBaromVisibWave heightAir tempDewpointWater temp
2018-Jan-24 01:30N 35°34' E 139°50'0 0.0
2018-Jan-24 00:57N 35°34' E 139°50'0 0.0
2018-Jan-24 00:27N 35°34' E 139°50'0 0.0
2018-Jan-24 00:00N 35°34' E 139°50'0 0.0
2018-Jan-23 23:21N 35°34' E 139°50'0 0.0
2018-Jan-23 23:00N 35°34' E 139°50'0 0.0
2018-Jan-23 22:30N 35°34' E 139°50'0 0.0
2018-Jan-23 21:57N 35°34' E 139°50'0 0.0
2018-Jan-23 21:24N 35°34' E 139°50'0 0.0
2018-Jan-23 20:51N 35°34' E 139°50'0 0.0
2018-Jan-23 20:06N 35°34' E 139°50'0 0.0
2018-Jan-23 18:48N 35°34' E 139°50'0 0.0
2018-Jan-23 18:24N 35°34' E 139°50'0 0.5
2018-Jan-23 18:00N 35°34' E 139°50'4 6.4
2018-Jan-23 17:26N 35°36' E 139°46'0 0.0
2018-Jan-23 13:48N 35°36' E 139°46'0 0.0
2018-Jan-23 12:24N 35°36' E 139°46'0 0.1
2018-Jan-23 11:42N 35°36' E 139°46'0 0.1
2018-Jan-23 11:24N 35°36' E 139°46'0 0.0
2018-Jan-23 10:54N 35°36' E 139°46'0 0.0
2018-Jan-23 10:22N 35°36' E 139°46'0 0.0
2018-Jan-23 09:59N 35°36' E 139°46'0 0.0
2018-Jan-23 09:30N 35°36' E 139°46'0 0.0
2018-Jan-23 09:00N 35°36' E 139°46'0 0.0
2018-Jan-23 08:30N 35°36' E 139°46'0 0.0
2018-Jan-23 07:57N 35°36' E 139°46'0 0.0
2018-Jan-23 07:06N 35°36' E 139°46'0 0.0
2018-Jan-23 06:57N 35°36' E 139°46'0 0.0
2018-Jan-23 06:27N 35°36' E 139°46'3 7.2
2018-Jan-23 05:59N 35°34' E 139°50'0 0.7
2018-Jan-23 05:25N 35°34' E 139°50'0 0.0
2018-Jan-23 04:55N 35°34' E 139°50'0 0.0
2018-Jan-23 04:28N 35°34' E 139°50'0 0.0
2018-Jan-23 03:58N 35°34' E 139°50'0 0.0
2018-Jan-23 03:28N 35°34' E 139°50'0 0.0
2018-Jan-23 02:58N 35°34' E 139°50'0 0.1
2018-Jan-23 02:28N 35°34' E 139°50'0 0.0
2018-Jan-23 01:52N 35°34' E 139°50'0 0.1
2018-Jan-23 01:19N 35°34' E 139°50'0 0.0
2018-Jan-23 00:28N 35°34' E 139°50'0 0.0
2018-Jan-22 23:58N 35°34' E 139°50'0 0.1
2018-Jan-22 23:28N 35°34' E 139°50'0 0.0
2018-Jan-22 22:16N 35°34' E 139°50'0 0.0
2018-Jan-22 21:49N 35°34' E 139°50'0 0.0
2018-Jan-22 21:22N 35°34' E 139°50'0 0.0
2018-Jan-22 20:58N 35°34' E 139°50'0 0.0
2018-Jan-22 20:25N 35°34' E 139°50'0 0.0
2018-Jan-22 19:58N 35°34' E 139°50'0 0.1
2018-Jan-22 19:22N 35°34' E 139°50'0 0.0
2018-Jan-22 17:25N 35°34' E 139°50'0 0.0
2018-Jan-22 16:46N 35°34' E 139°50'0 0.0
2018-Jan-22 16:28N 35°34' E 139°50'0 0.0
2018-Jan-22 15:49N 35°34' E 139°50'0 0.0
2018-Jan-22 15:16N 35°34' E 139°50'0 0.0
2018-Jan-22 14:49N 35°34' E 139°50'0 0.0
2018-Jan-22 14:07N 35°34' E 139°50'0 0.0
2018-Jan-22 13:52N 35°34' E 139°50'0 0.0
2018-Jan-22 13:25N 35°34' E 139°50'0 0.0
2018-Jan-22 12:58N 35°34' E 139°50'0 0.0
2018-Jan-22 12:25N 35°34' E 139°50'0 0.0
2018-Jan-22 11:58N 35°34' E 139°50'0 0.0
2018-Jan-22 11:25N 35°34' E 139°50'0 0.0
2018-Jan-22 10:55N 35°34' E 139°50'0 0.0
2018-Jan-22 10:13N 35°34' E 139°50'0 0.0
2018-Jan-22 09:52N 35°34' E 139°50'0 0.0
2018-Jan-22 09:22N 35°34' E 139°50'0 0.0
2018-Jan-22 08:55N 35°34' E 139°50'0 0.0
2018-Jan-22 08:19N 35°34' E 139°50'0 0.0
2018-Jan-22 07:43N 35°34' E 139°50'0 0.0
2018-Jan-22 07:29N 35°34' E 139°50'0 0.0
2018-Jan-22 07:00N 35°34' E 139°50'0 0.1
2018-Jan-22 06:30N 35°34' E 139°50'0 0.0
2018-Jan-22 06:00N 35°34' E 139°50'0 0.0
2018-Jan-22 05:30N 35°34' E 139°50'0 0.1
2018-Jan-22 04:59N 35°34' E 139°50'4 7.5
2018-Jan-22 04:29N 35°36' E 139°46'0 0.3
2018-Jan-22 03:59N 35°36' E 139°46'3 7.1
2018-Jan-22 03:30N 35°34' E 139°49'1 1.1
2018-Jan-22 02:51N 35°34' E 139°50'0 0.0
2018-Jan-22 02:30N 35°34' E 139°50'0 0.0
2018-Jan-22 01:54N 35°34' E 139°50'0 0.0
2018-Jan-22 01:30N 35°34' E 139°50'0 0.0
2018-Jan-22 00:57N 35°34' E 139°50'0 0.0
2018-Jan-22 00:30N 35°34' E 139°50'0 0.0
2018-Jan-22 00:00N 35°34' E 139°50'0 0.0
2018-Jan-21 23:30N 35°34' E 139°50'0 0.0
2018-Jan-21 23:00N 35°34' E 139°50'0 0.0
2018-Jan-21 22:30N 35°34' E 139°50'0 0.0
2018-Jan-21 22:00N 35°34' E 139°50'0 0.0
2018-Jan-21 21:30N 35°34' E 139°50'0 0.0
2018-Jan-21 20:57N 35°34' E 139°50'0 0.0
2018-Jan-21 20:30N 35°34' E 139°50'0 0.0
2018-Jan-21 20:00N 35°34' E 139°50'0 0.1
2018-Jan-21 19:30N 35°34' E 139°50'0 0.0
2018-Jan-21 19:00N 35°34' E 139°50'0 0.1
2018-Jan-21 18:30N 35°34' E 139°50'0 0.1
2018-Jan-21 17:21N 35°34' E 139°50'0 0.0
2018-Jan-21 16:51N 35°34' E 139°50'0 0.0
2018-Jan-21 16:30N 35°34' E 139°50'0 0.0
2018-Jan-21 16:00N 35°34' E 139°50'0 0.0
2018-Jan-21 15:30N 35°34' E 139°50'0 0.0
2018-Jan-21 15:00N 35°34' E 139°50'0 0.0
2018-Jan-21 14:18N 35°34' E 139°50'0 0.0
2018-Jan-21 14:00N 35°34' E 139°50'0 0.1
2018-Jan-21 13:18N 35°34' E 139°50'2 7.9
2018-Jan-21 13:00N 35°32' E 139°51'510.7
2018-Jan-21 12:30N 35°27' E 139°48'511.0
2018-Jan-21 12:01N 35°22' E 139°45'510.0
2018-Jan-21 11:30N 35°17' E 139°45'510.7
2018-Jan-21 11:00N 35°12' E 139°47'611.6
2018-Jan-21 10:31N 35°07' E 139°45'612.4
2018-Jan-21 10:00N 35°01' E 139°44'611.3
2018-Jan-21 09:29N 34°55' E 139°46'11 9.3
2018-Jan-21 08:19N 34°54' E 139°59'410.8
2018-Jan-21 07:59N 34°56' E 140°03'  
2018-Jan-18 17:02N 35°00' E 140°12'011.0
2018-Jan-18 17:00N 34°60' E 140°11'2010.8
2018-Jan-18 15:07N 34°53' E 139°48'1 9.7
2018-Jan-18 15:00N 34°53' E 139°47'510.6
2018-Jan-18 14:30N 34°58' E 139°44'611.6
2018-Jan-18 14:00N 35°03' E 139°45'511.1
2018-Jan-18 13:30N 35°09' E 139°45'611.9
2018-Jan-18 13:00N 35°15' E 139°46'612.2
2018-Jan-18 12:30N 35°20' E 139°43'611.5
2018-Jan-18 12:00N 35°26' E 139°44'612.2
2018-Jan-18 11:30N 35°31' E 139°49'5 9.8
2018-Jan-18 10:58N 35°36' E 139°47'1 2.5
2018-Jan-18 10:26N 35°37' E 139°46'0 0.0
2018-Jan-18 09:59N 35°37' E 139°46'1 1.1
2018-Jan-18 09:30N 35°36' E 139°46'4 7.3
2018-Jan-18 09:00N 35°34' E 139°50'0 0.4
2018-Jan-18 08:30N 35°34' E 139°50'0 0.0
2018-Jan-18 07:53N 35°34' E 139°50'0 0.0
2018-Jan-18 07:08N 35°34' E 139°50'0 0.1
2018-Jan-18 06:45N 35°34' E 139°50'2 7.3
2018-Jan-18 06:30N 35°33' E 139°52'510.1
2018-Jan-18 06:01N 35°30' E 139°47'1 2.4
2018-Jan-18 05:28N 35°29' E 139°45'0 0.0
2018-Jan-18 04:58N 35°29' E 139°45'0 0.0
2018-Jan-18 04:31N 35°29' E 139°45'0 0.0
2018-Jan-18 04:00N 35°29' E 139°45'5 9.2
2018-Jan-18 03:31N 35°25' E 139°46'611.6
2018-Jan-18 03:00N 35°19' E 139°44'510.7
2018-Jan-18 02:30N 35°14' E 139°47'611.2
2018-Jan-18 02:00N 35°09' E 139°46'510.7
2018-Jan-18 01:30N 35°04' E 139°43'611.2
2018-Jan-18 01:00N 35°01' E 139°38'1111.3
2018-Jan-18 00:00N 34°54' E 139°26'111.3
2018-Jan-17 23:54N 34°54' E 139°25'  

Dump ship's entire track history